createdAt,value
2022-12-23T00:02:02.806Z,6.55
2022-12-23T00:06:12.780Z,5.90
2022-12-23T00:10:14.351Z,6.18
2022-12-23T00:14:34.547Z,5.85
2022-12-23T00:18:36.706Z,5.35
2022-12-23T00:22:56.880Z,5.50
2022-12-23T00:26:58.427Z,5.93
2022-12-23T00:31:05.640Z,4.85
2022-12-23T00:35:07.458Z,4.88
2022-12-23T00:39:31.046Z,4.97
2022-12-23T00:43:32.552Z,4.38
2022-12-23T00:47:52.888Z,4.78
2022-12-23T00:51:54.424Z,4.50
2022-12-23T00:55:55.973Z,4.65
2022-12-23T00:59:57.572Z,3.97
2022-12-23T01:04:17.637Z,4.35
2022-12-23T01:08:19.153Z,4.72
2022-12-23T01:12:20.844Z,4.45
2022-12-23T01:16:22.411Z,4.35
2022-12-23T01:20:24.851Z,4.70
2022-12-23T01:24:30.477Z,4.68
2022-12-23T01:28:32.430Z,4.47
2022-12-23T01:32:34.419Z,4.65
2022-12-23T01:36:36.433Z,4.53
2022-12-23T01:40:41.136Z,4.40
2022-12-23T01:44:56.072Z,4.50
2022-12-23T01:48:57.697Z,4.43
2022-12-23T01:53:08.736Z,3.97
2022-12-23T01:57:11.061Z,4.60
2022-12-23T02:01:31.964Z,3.78
2022-12-23T02:05:34.922Z,3.72
2022-12-23T02:09:39.877Z,3.55
2022-12-23T02:14:15.413Z,3.33
2022-12-23T02:18:41.852Z,3.85
2022-12-23T02:23:04.399Z,3.28
2022-12-23T02:27:13.533Z,4.18
2022-12-23T02:31:31.964Z,3.00
2022-12-23T02:35:44.945Z,3.05
2022-12-23T02:39:54.208Z,3.08
2022-12-23T02:44:18.620Z,3.47
2022-12-23T02:48:35.887Z,3.10
2022-12-23T02:52:41.213Z,3.28
2022-12-23T02:56:47.342Z,2.75
2022-12-23T03:00:49.782Z,2.72
2022-12-23T03:04:51.748Z,3.00
2022-12-23T03:08:57.514Z,2.45
2022-12-23T03:13:12.671Z,2.70
2022-12-23T03:17:25.516Z,2.83
2022-12-23T03:21:37.414Z,2.40
2022-12-23T03:25:42.180Z,2.20
2022-12-23T03:29:57.660Z,2.38
2022-12-23T03:34:14.254Z,2.33
2022-12-23T03:38:18.321Z,2.30
2022-12-23T03:42:28.527Z,2.42
2022-12-23T03:46:53.077Z,2.40
2022-12-23T03:50:59.783Z,2.75
2022-12-23T03:55:06.099Z,4.13
2022-12-23T03:59:17.747Z,4.38
2022-12-23T04:03:31.318Z,3.97
2022-12-23T04:07:39.631Z,4.18
2022-12-23T04:11:41.818Z,3.63
2022-12-23T04:15:43.592Z,3.47
2022-12-23T04:19:46.433Z,3.03
2022-12-23T04:23:47.881Z,3.17
2022-12-23T04:27:49.427Z,2.40
2022-12-23T04:31:50.912Z,2.50
2022-12-23T04:35:52.431Z,2.42
2022-12-23T04:39:53.916Z,2.38
2022-12-23T04:43:55.538Z,2.00
2022-12-23T04:47:57.550Z,2.03
2022-12-23T04:51:59.238Z,1.80
2022-12-23T04:56:00.917Z,1.80
2022-12-23T05:00:03.989Z,1.90
2022-12-23T05:04:05.447Z,2.00
2022-12-23T05:08:06.917Z,1.90
2022-12-23T05:12:08.650Z,1.27
2022-12-23T05:16:10.169Z,0.80
2022-12-23T05:20:11.812Z,0.47
2022-12-23T05:24:13.404Z,0.40
2022-12-23T05:28:15.045Z,0.45
2022-12-23T05:32:16.510Z,0.30
2022-12-23T05:36:18.043Z,0.40
2022-12-23T05:40:23.723Z,0.45
2022-12-23T05:44:30.396Z,0.40
2022-12-23T05:48:31.901Z,0.50
2022-12-23T05:52:33.391Z,0.50
2022-12-23T05:56:34.823Z,0.40
2022-12-23T06:00:36.331Z,0.32
2022-12-23T06:04:37.880Z,0.45
2022-12-23T06:08:39.508Z,0.20
2022-12-23T06:12:41.196Z,0.40
2022-12-23T06:16:42.796Z,0.60
2022-12-23T06:20:47.768Z,0.40
2022-12-23T06:24:49.900Z,0.50
2022-12-23T06:28:51.551Z,0.32
2022-12-23T06:32:53.088Z,0.43
2022-12-23T06:36:54.760Z,0.50
2022-12-23T06:40:56.474Z,0.40
2022-12-23T06:44:57.945Z,0.30
2022-12-23T06:48:59.434Z,0.50
2022-12-23T06:53:00.976Z,0.47
2022-12-23T06:57:02.728Z,0.50
2022-12-23T07:01:04.561Z,0.70
2022-12-23T07:05:06.355Z,0.60
2022-12-23T07:09:07.844Z,0.68
2022-12-23T07:13:09.780Z,0.60
2022-12-23T07:17:11.486Z,0.50
2022-12-23T07:21:21.210Z,0.80
2022-12-23T07:25:28.293Z,0.70
2022-12-23T07:29:29.957Z,1.00
2022-12-23T07:33:31.470Z,0.50
2022-12-23T07:37:33.133Z,0.70
2022-12-23T07:41:34.666Z,0.60
2022-12-23T07:45:41.122Z,0.60
2022-12-23T07:49:42.647Z,0.80
2022-12-23T07:53:47.725Z,0.60
2022-12-23T07:57:50.348Z,0.70
2022-12-23T08:01:52.126Z,0.90
2022-12-23T08:06:01.579Z,1.25
2022-12-23T08:10:04.198Z,0.70
2022-12-23T08:14:06.286Z,0.73
2022-12-23T08:18:07.798Z,0.93
2022-12-23T08:22:09.329Z,1.13
2022-12-23T08:26:16.852Z,0.90
2022-12-23T08:30:18.478Z,0.75
2022-12-23T08:34:19.984Z,0.63
2022-12-23T08:38:21.604Z,0.70
2022-12-23T08:42:23.228Z,0.65
2022-12-23T08:46:25.929Z,0.50
2022-12-23T08:50:27.645Z,0.60
2022-12-23T08:54:29.442Z,0.75
2022-12-23T08:58:31.603Z,0.63
2022-12-23T09:02:34.990Z,0.47
2022-12-23T09:06:40.690Z,0.60
2022-12-23T09:10:43.585Z,0.90
2022-12-23T09:14:47.623Z,0.63
2022-12-23T09:18:49.236Z,0.70
2022-12-23T09:22:50.991Z,0.77
2022-12-23T09:26:52.456Z,0.70
2022-12-23T09:30:54.042Z,0.60
2022-12-23T09:34:55.618Z,0.60
2022-12-23T09:38:58.058Z,0.70
2022-12-23T09:43:20.908Z,0.55
2022-12-23T09:47:26.509Z,0.70
2022-12-23T09:51:30.587Z,0.55
2022-12-23T09:55:47.074Z,0.65
2022-12-23T10:00:03.204Z,2.33
2022-12-23T10:04:19.407Z,0.70
2022-12-23T10:08:44.994Z,0.70
2022-12-23T10:12:49.897Z,0.60
2022-12-23T10:16:58.830Z,0.70
2022-12-23T10:21:06.117Z,0.70
2022-12-23T10:25:15.577Z,0.60
2022-12-23T10:29:20.155Z,0.60
2022-12-23T10:33:24.326Z,0.80
2022-12-23T10:37:43.813Z,0.85
2022-12-23T10:42:01.699Z,0.90
2022-12-23T10:46:25.574Z,0.90
2022-12-23T10:50:36.294Z,0.70
2022-12-23T10:54:41.560Z,0.60
2022-12-23T10:58:48.260Z,0.90
2022-12-23T11:03:07.968Z,0.80
2022-12-23T11:11:52.578Z,1.08
2022-12-23T11:16:10.862Z,1.05
2022-12-23T11:20:20.140Z,0.85
2022-12-23T11:24:22.681Z,0.82
2022-12-23T11:28:24.419Z,1.05
2022-12-23T11:32:28.094Z,0.82
2022-12-23T11:36:31.273Z,0.80
2022-12-23T11:40:38.572Z,1.20
2022-12-23T11:44:44.110Z,0.85
2022-12-23T11:48:50.062Z,0.93
2022-12-23T11:53:04.509Z,0.80
2022-12-23T11:57:14.951Z,1.00
2022-12-23T12:01:20.349Z,0.95
2022-12-23T12:05:40.483Z,0.95
2022-12-23T12:09:45.601Z,0.90
2022-12-23T12:13:56.618Z,1.00
2022-12-23T12:17:59.010Z,1.10
2022-12-23T12:22:06.849Z,0.95
2022-12-23T12:26:20.200Z,0.90
2022-12-23T12:30:22.418Z,0.80
2022-12-23T12:34:34.142Z,0.90
2022-12-23T12:38:39.196Z,0.90
2022-12-23T12:42:43.398Z,1.00
2022-12-23T12:46:49.777Z,0.80
2022-12-23T12:51:24.899Z,1.13
2022-12-23T12:55:31.680Z,1.13
2022-12-23T12:59:39.070Z,1.02
2022-12-23T13:03:55.785Z,0.80
2022-12-23T13:07:57.435Z,1.10
2022-12-23T13:12:14.884Z,0.98
2022-12-23T13:16:25.070Z,0.88
2022-12-23T13:20:38.533Z,1.05
2022-12-23T13:24:43.761Z,0.80
2022-12-23T13:29:06.193Z,0.98
2022-12-23T13:33:07.896Z,0.90
2022-12-23T13:37:50.223Z,1.23
2022-12-23T13:41:59.890Z,1.15
2022-12-23T13:46:30.623Z,0.90
2022-12-23T13:50:43.616Z,1.02
2022-12-23T13:54:48.495Z,1.05
2022-12-23T13:58:51.321Z,0.90
2022-12-23T14:03:06.973Z,0.95
2022-12-23T14:07:21.516Z,0.93
2022-12-23T14:11:28.429Z,1.05
2022-12-23T14:15:51.232Z,1.00
2022-12-23T14:20:01.957Z,0.82
2022-12-23T14:24:31.580Z,0.80
2022-12-23T14:28:56.562Z,0.90
2022-12-23T14:33:00.459Z,0.90
2022-12-23T14:37:20.486Z,1.50
2022-12-23T14:41:39.723Z,1.20
2022-12-23T14:45:44.852Z,1.55
2022-12-23T14:49:46.675Z,1.33
2022-12-23T14:53:56.614Z,7.40
2022-12-23T14:58:17.024Z,3.78
2022-12-23T15:02:30.899Z,5.32
2022-12-23T15:06:37.003Z,2.58
2022-12-23T15:10:38.707Z,4.07
2022-12-23T15:14:54.300Z,2.08
2022-12-23T15:18:57.867Z,3.35
2022-12-23T15:23:14.234Z,4.40
2022-12-23T15:27:29.423Z,4.72
2022-12-23T15:31:35.255Z,2.30
2022-12-23T15:35:39.903Z,4.28
2022-12-23T15:39:44.858Z,3.05
2022-12-23T15:43:46.520Z,2.55
2022-12-23T15:47:48.231Z,2.00
2022-12-23T15:52:08.021Z,2.10
2022-12-23T15:56:23.537Z,1.90
2022-12-23T16:00:30.985Z,1.88
2022-12-23T16:04:32.603Z,2.38
2022-12-23T16:08:34.322Z,2.03
2022-12-23T16:12:36.473Z,2.70
2022-12-23T16:16:39.914Z,3.10
2022-12-23T16:20:45.117Z,3.60
2022-12-23T16:24:48.608Z,3.78
2022-12-23T16:28:53.436Z,3.40
2022-12-23T16:32:58.087Z,3.20
2022-12-23T16:36:59.596Z,3.10
2022-12-23T16:41:01.204Z,3.33
2022-12-23T16:45:02.815Z,4.30
2022-12-23T16:49:06.612Z,4.10
2022-12-23T16:53:14.131Z,4.20
2022-12-23T16:57:15.663Z,3.85
2022-12-23T17:01:24.701Z,3.67
2022-12-23T17:05:26.338Z,3.88
2022-12-23T17:09:27.846Z,4.03
2022-12-23T17:13:29.443Z,4.15
2022-12-23T17:17:31.055Z,4.95
2022-12-23T17:21:36.730Z,6.10
2022-12-23T17:25:38.751Z,5.13
2022-12-23T17:29:40.611Z,5.13
2022-12-23T17:33:42.238Z,4.45
2022-12-23T17:37:43.929Z,4.38
2022-12-23T17:41:46.096Z,4.43
2022-12-23T17:45:47.662Z,5.47
2022-12-23T17:49:50.226Z,4.53
2022-12-23T17:53:57.672Z,4.90
2022-12-23T17:57:59.731Z,5.20
2022-12-23T18:02:03.146Z,5.30
2022-12-23T18:06:09.479Z,5.93
2022-12-23T18:10:19.066Z,5.80
2022-12-23T18:14:27.708Z,5.38
2022-12-23T18:18:37.938Z,5.40
2022-12-23T18:22:47.419Z,4.93
2022-12-23T18:26:49.195Z,4.80
2022-12-23T18:30:53.162Z,5.00
2022-12-23T18:34:55.743Z,5.47
2022-12-23T18:38:57.631Z,5.57
2022-12-23T18:42:59.348Z,5.75
2022-12-23T18:47:00.893Z,5.93
2022-12-23T18:51:02.690Z,6.00
2022-12-23T18:55:06.421Z,6.20
2022-12-23T18:59:16.596Z,6.40
2022-12-23T19:03:27.500Z,6.82
2022-12-23T19:07:28.965Z,7.13
2022-12-23T19:11:30.957Z,7.50
2022-12-23T19:15:32.596Z,7.50
2022-12-23T19:19:34.180Z,8.13
2022-12-23T19:23:35.948Z,8.40
2022-12-23T19:27:40.438Z,8.30
2022-12-23T19:31:42.043Z,8.70
2022-12-23T19:35:44.031Z,8.05
2022-12-23T19:39:45.531Z,8.07
2022-12-23T19:43:47.333Z,8.73
2022-12-23T19:47:48.863Z,7.53
2022-12-23T19:51:50.825Z,8.50
2022-12-23T19:56:05.764Z,8.00
2022-12-23T20:00:08.888Z,7.25
2022-12-23T20:04:16.371Z,8.00
2022-12-23T20:08:17.901Z,6.10
2022-12-23T20:12:19.554Z,6.90
2022-12-23T20:16:22.004Z,6.88
2022-12-23T20:20:23.724Z,6.45
2022-12-23T20:24:25.242Z,6.63
2022-12-23T20:28:27.199Z,7.30
2022-12-23T20:32:28.650Z,8.38
2022-12-23T20:36:32.607Z,8.18
2022-12-23T20:40:34.151Z,7.03
2022-12-23T20:44:37.262Z,6.85
2022-12-23T20:48:39.150Z,6.80
2022-12-23T20:52:40.914Z,7.55
2022-12-23T20:56:42.488Z,6.30
2022-12-23T21:00:44.061Z,6.28
2022-12-23T21:04:45.772Z,6.70
2022-12-23T21:08:47.606Z,6.30
2022-12-23T21:12:49.227Z,6.00
2022-12-23T21:16:50.774Z,5.30
2022-12-23T21:20:52.528Z,4.97
2022-12-23T21:24:54.087Z,4.45
2022-12-23T21:28:59.321Z,4.38
2022-12-23T21:33:02.377Z,5.15
2022-12-23T21:37:04.202Z,4.68
2022-12-23T21:41:09.042Z,5.28
2022-12-23T21:45:11.093Z,4.22
2022-12-23T21:49:12.928Z,4.90
2022-12-23T21:53:14.713Z,4.60
2022-12-23T21:57:16.361Z,4.00
2022-12-23T22:01:20.669Z,4.82
2022-12-23T22:05:22.246Z,4.15
2022-12-23T22:09:23.813Z,3.70
2022-12-23T22:13:27.256Z,4.05
2022-12-23T22:17:28.794Z,3.88
2022-12-23T22:21:32.003Z,3.63
2022-12-23T22:25:33.756Z,3.40
2022-12-23T22:29:35.444Z,4.18
2022-12-23T22:33:37.045Z,4.22
2022-12-23T22:37:39.496Z,3.20
2022-12-23T22:41:41.111Z,4.13
2022-12-23T22:45:42.631Z,4.57
2022-12-23T22:49:44.459Z,5.00
2022-12-23T22:53:46.705Z,3.88
2022-12-23T22:57:48.327Z,2.83
2022-12-23T23:01:51.687Z,2.75
2022-12-23T23:06:02.202Z,2.67
2022-12-23T23:10:04.978Z,1.58
2022-12-23T23:14:07.106Z,1.25
2022-12-23T23:18:08.749Z,0.90
2022-12-23T23:22:10.386Z,0.80
2022-12-23T23:26:12.550Z,0.80
2022-12-23T23:30:14.200Z,0.88
2022-12-23T23:34:15.717Z,1.30
2022-12-23T23:38:17.260Z,1.30
2022-12-23T23:42:18.837Z,1.10
2022-12-23T23:46:20.491Z,1.33
2022-12-23T23:50:22.747Z,1.30
2022-12-23T23:54:24.321Z,1.00
2022-12-23T23:58:26.044Z,0.75
